ENVA/TRD METAR and TAF weather

Enter ICAO airport designator
Station Type Date Time Source
ENVA METAR 2019/04/18 20:20 UTC NOAA

ENVA 182020Z 13004KT CAVOK 10/M01 Q1036 RMK WIND 670FT 15006KT


Station Type Date Time Source
ENVA Decoded METAR 2019/04/18 20:20 UTC NOAA

Trondheim / Vaernes, Norway (ENVA) 63-28N 010-56E 17M
Apr 18, 2019 - 04:20 PM EDT / 2019.04.18 2020 UTC
Wind: from the SE (130 degrees) at 5 MPH (4 KT):0
Visibility: greater than 7 mile(s):0
Temperature: 50 F (10 C)
Dew Point: 30 F (-1 C)
Relative Humidity: 46%
Pressure (altimeter): 30.59 in. Hg (1036 hPa)
ob: ENVA 182020Z 13004KT CAVOK 10/M01 Q1036 RMK WIND 670FT 15006KT
cycle: 20

Station Type Date Time Source
ENVA TAF 2019/04/18 18:57 UTC NOAA

TAF ENVA 181700Z 1818/1918 VRB05KT CAVOK PROB40 1910/1918 26010KT

Example: see airport list